sensor_id;sensor_type;location;lat;lon;timestamp;temperature;humidity
31867;DHT22;18431;45.580;-122.680;2022-07-23T00:01:44;25.70;50.10
31867;DHT22;18431;45.580;-122.680;2022-07-23T00:04:15;25.50;50.30
31867;DHT22;18431;45.580;-122.680;2022-07-23T00:06:46;25.40;50.50
31867;DHT22;18431;45.580;-122.680;2022-07-23T00:09:17;25.20;50.60
31867;DHT22;18431;45.580;-122.680;2022-07-23T00:11:47;25.00;50.80
31867;DHT22;18431;45.580;-122.680;2022-07-23T00:14:17;24.90;51.10
31867;DHT22;18431;45.580;-122.680;2022-07-23T00:16:47;24.80;51.30
31867;DHT22;18431;45.580;-122.680;2022-07-23T00:19:18;24.80;51.20
31867;DHT22;18431;45.580;-122.680;2022-07-23T00:21:48;24.80;50.80
31867;DHT22;18431;45.580;-122.680;2022-07-23T00:24:17;24.90;50.70
31867;DHT22;18431;45.580;-122.680;2022-07-23T00:26:47;25.00;50.50
31867;DHT22;18431;45.580;-122.680;2022-07-23T00:29:17;25.00;50.30
31867;DHT22;18431;45.580;-122.680;2022-07-23T00:31:47;25.10;50.20
31867;DHT22;18431;45.580;-122.680;2022-07-23T00:34:17;25.20;50.40
31867;DHT22;18431;45.580;-122.680;2022-07-23T00:36:47;25.20;50.40
31867;DHT22;18431;45.580;-122.680;2022-07-23T00:39:17;25.30;50.50
31867;DHT22;18431;45.580;-122.680;2022-07-23T00:41:46;25.30;50.50
31867;DHT22;18431;45.580;-122.680;2022-07-23T00:44:20;25.30;50.50
31867;DHT22;18431;45.580;-122.680;2022-07-23T00:46:57;25.40;50.60
31867;DHT22;18431;45.580;-122.680;2022-07-23T00:49:28;25.40;50.80
31867;DHT22;18431;45.580;-122.680;2022-07-23T00:52:00;25.40;50.90
31867;DHT22;18431;45.580;-122.680;2022-07-23T00:54:30;25.50;50.90
31867;DHT22;18431;45.580;-122.680;2022-07-23T00:57:00;25.50;50.70
31867;DHT22;18431;45.580;-122.680;2022-07-23T00:59:30;25.50;50.50
31867;DHT22;18431;45.580;-122.680;2022-07-23T01:02:00;25.50;50.30
31867;DHT22;18431;45.580;-122.680;2022-07-23T01:04:30;25.60;50.20
31867;DHT22;18431;45.580;-122.680;2022-07-23T01:07:00;25.60;50.10
31867;DHT22;18431;45.580;-122.680;2022-07-23T01:09:31;25.60;50.00
31867;DHT22;18431;45.580;-122.680;2022-07-23T01:12:01;25.70;50.00
31867;DHT22;18431;45.580;-122.680;2022-07-23T01:14:32;25.70;49.90
31867;DHT22;18431;45.580;-122.680;2022-07-23T01:17:02;25.60;50.00
31867;DHT22;18431;45.580;-122.680;2022-07-23T01:19:31;25.40;50.00
31867;DHT22;18431;45.580;-122.680;2022-07-23T01:22:03;25.20;50.00
31867;DHT22;18431;45.580;-122.680;2022-07-23T01:24:33;25.10;50.10
31867;DHT22;18431;45.580;-122.680;2022-07-23T01:27:03;24.90;50.10
31867;DHT22;18431;45.580;-122.680;2022-07-23T01:29:33;24.70;50.10
31867;DHT22;18431;45.580;-122.680;2022-07-23T01:32:04;24.60;50.10
31867;DHT22;18431;45.580;-122.680;2022-07-23T01:34:34;24.50;50.90
31867;DHT22;18431;45.580;-122.680;2022-07-23T01:37:04;24.60;51.10
31867;DHT22;18431;45.580;-122.680;2022-07-23T01:39:52;24.70;51.00
31867;DHT22;18431;45.580;-122.680;2022-07-23T01:42:22;24.80;51.10
31867;DHT22;18431;45.580;-122.680;2022-07-23T01:44:52;24.90;51.10
31867;DHT22;18431;45.580;-122.680;2022-07-23T01:47:22;25.00;50.80
31867;DHT22;18431;45.580;-122.680;2022-07-23T01:49:52;25.10;50.60
31867;DHT22;18431;45.580;-122.680;2022-07-23T01:52:22;25.10;50.40
31867;DHT22;18431;45.580;-122.680;2022-07-23T01:54:51;25.20;50.30
31867;DHT22;18431;45.580;-122.680;2022-07-23T01:57:21;25.30;50.20
31867;DHT22;18431;45.580;-122.680;2022-07-23T01:59:51;25.30;50.10
31867;DHT22;18431;45.580;-122.680;2022-07-23T02:02:21;25.40;50.40
31867;DHT22;18431;45.580;-122.680;2022-07-23T02:04:51;25.40;50.40
31867;DHT22;18431;45.580;-122.680;2022-07-23T02:07:21;25.40;50.40
31867;DHT22;18431;45.580;-122.680;2022-07-23T02:09:50;25.50;50.30
31867;DHT22;18431;45.580;-122.680;2022-07-23T02:12:20;25.50;50.10
31867;DHT22;18431;45.580;-122.680;2022-07-23T02:14:50;25.60;50.00
31867;DHT22;18431;45.580;-122.680;2022-07-23T02:17:20;25.60;49.90
31867;DHT22;18431;45.580;-122.680;2022-07-23T02:19:50;25.60;49.80
31867;DHT22;18431;45.580;-122.680;2022-07-23T02:22:20;25.70;49.70
31867;DHT22;18431;45.580;-122.680;2022-07-23T02:24:49;25.70;49.60
31867;DHT22;18431;45.580;-122.680;2022-07-23T02:27:19;25.70;49.60
31867;DHT22;18431;45.580;-122.680;2022-07-23T02:29:49;25.80;49.50
31867;DHT22;18431;45.580;-122.680;2022-07-23T02:32:19;25.80;49.70
31867;DHT22;18431;45.580;-122.680;2022-07-23T02:34:49;25.80;49.80
31867;DHT22;18431;45.580;-122.680;2022-07-23T02:37:19;25.80;49.80
31867;DHT22;18431;45.580;-122.680;2022-07-23T02:39:49;25.80;50.00
31867;DHT22;18431;45.580;-122.680;2022-07-23T02:42:19;25.80;50.10
31867;DHT22;18431;45.580;-122.680;2022-07-23T02:44:49;25.80;50.30
31867;DHT22;18431;45.580;-122.680;2022-07-23T02:47:19;25.80;50.50
31867;DHT22;18431;45.580;-122.680;2022-07-23T02:49:49;25.90;50.70
31867;DHT22;18431;45.580;-122.680;2022-07-23T02:52:19;25.80;50.80
31867;DHT22;18431;45.580;-122.680;2022-07-23T02:54:48;25.80;50.60
31867;DHT22;18431;45.580;-122.680;2022-07-23T02:57:18;25.60;50.10
31867;DHT22;18431;45.580;-122.680;2022-07-23T02:59:48;25.40;49.90
31867;DHT22;18431;45.580;-122.680;2022-07-23T03:02:18;25.20;49.80
31867;DHT22;18431;45.580;-122.680;2022-07-23T03:04:48;25.10;49.80
31867;DHT22;18431;45.580;-122.680;2022-07-23T03:07:18;24.90;49.80
31867;DHT22;18431;45.580;-122.680;2022-07-23T03:09:48;24.70;49.70
31867;DHT22;18431;45.580;-122.680;2022-07-23T03:12:18;24.70;50.80
31867;DHT22;18431;45.580;-122.680;2022-07-23T03:14:48;24.70;50.70
31867;DHT22;18431;45.580;-122.680;2022-07-23T03:17:18;24.80;51.00
31867;DHT22;18431;45.580;-122.680;2022-07-23T03:19:48;24.90;51.00
31867;DHT22;18431;45.580;-122.680;2022-07-23T03:22:18;24.90;51.00
31867;DHT22;18431;45.580;-122.680;2022-07-23T03:24:47;25.00;50.70
31867;DHT22;18431;45.580;-122.680;2022-07-23T03:27:25;25.10;50.40
31867;DHT22;18431;45.580;-122.680;2022-07-23T03:29:56;25.20;50.20
31867;DHT22;18431;45.580;-122.680;2022-07-23T03:32:26;25.30;50.30
31867;DHT22;18431;45.580;-122.680;2022-07-23T03:34:56;25.30;50.30
31867;DHT22;18431;45.580;-122.680;2022-07-23T03:37:27;25.30;50.30
31867;DHT22;18431;45.580;-122.680;2022-07-23T03:39:56;25.40;50.40
31867;DHT22;18431;45.580;-122.680;2022-07-23T03:42:27;25.50;50.40
31867;DHT22;18431;45.580;-122.680;2022-07-23T03:44:57;25.50;50.40
31867;DHT22;18431;45.580;-122.680;2022-07-23T03:47:27;25.50;50.60
31867;DHT22;18431;45.580;-122.680;2022-07-23T03:49:57;25.50;50.70
31867;DHT22;18431;45.580;-122.680;2022-07-23T03:52:27;25.60;50.90
31867;DHT22;18431;45.580;-122.680;2022-07-23T03:54:56;25.60;51.00
31867;DHT22;18431;45.580;-122.680;2022-07-23T03:57:26;25.70;51.20
31867;DHT22;18431;45.580;-122.680;2022-07-23T03:59:56;25.70;50.80
31867;DHT22;18431;45.580;-122.680;2022-07-23T04:02:29;25.70;50.70
31867;DHT22;18431;45.580;-122.680;2022-07-23T04:04:58;25.70;50.50
31867;DHT22;18431;45.580;-122.680;2022-07-23T04:07:29;25.80;50.30
31867;DHT22;18431;45.580;-122.680;2022-07-23T04:09:59;25.80;50.30
31867;DHT22;18431;45.580;-122.680;2022-07-23T04:12:30;25.90;50.10
31867;DHT22;18431;45.580;-122.680;2022-07-23T04:15:00;25.90;49.90
31867;DHT22;18431;45.580;-122.680;2022-07-23T04:17:30;25.90;49.80
31867;DHT22;18431;45.580;-122.680;2022-07-23T04:19:59;25.90;49.90
31867;DHT22;18431;45.580;-122.680;2022-07-23T04:22:29;25.90;50.00
31867;DHT22;18431;45.580;-122.680;2022-07-23T04:24:59;25.90;49.80
31867;DHT22;18431;45.580;-122.680;2022-07-23T04:27:29;26.00;49.80
31867;DHT22;18431;45.580;-122.680;2022-07-23T04:30:00;26.00;49.90
31867;DHT22;18431;45.580;-122.680;2022-07-23T04:32:30;26.00;49.70
31867;DHT22;18431;45.580;-122.680;2022-07-23T04:35:00;26.00;49.90
31867;DHT22;18431;45.580;-122.680;2022-07-23T04:37:30;26.00;49.90
31867;DHT22;18431;45.580;-122.680;2022-07-23T04:40:01;26.00;49.70
31867;DHT22;18431;45.580;-122.680;2022-07-23T04:42:31;26.00;49.60
31867;DHT22;18431;45.580;-122.680;2022-07-23T04:45:03;26.00;49.50
31867;DHT22;18431;45.580;-122.680;2022-07-23T04:47:41;26.10;49.80
31867;DHT22;18431;45.580;-122.680;2022-07-23T04:50:12;26.10;50.00
31867;DHT22;18431;45.580;-122.680;2022-07-23T04:52:43;26.10;50.10
31867;DHT22;18431;45.580;-122.680;2022-07-23T04:55:14;26.10;50.40
31867;DHT22;18431;45.580;-122.680;2022-07-23T04:57:44;26.10;50.60
31867;DHT22;18431;45.580;-122.680;2022-07-23T05:00:14;26.10;51.00
31867;DHT22;18431;45.580;-122.680;2022-07-23T05:02:44;26.10;51.10
31867;DHT22;18431;45.580;-122.680;2022-07-23T05:05:14;26.10;51.70
31867;DHT22;18431;45.580;-122.680;2022-07-23T05:07:44;26.10;51.40
31867;DHT22;18431;45.580;-122.680;2022-07-23T05:10:14;26.20;51.00
31867;DHT22;18431;45.580;-122.680;2022-07-23T05:12:44;26.20;50.70
31867;DHT22;18431;45.580;-122.680;2022-07-23T05:15:14;26.20;50.50
31867;DHT22;18431;45.580;-122.680;2022-07-23T05:17:43;26.30;50.30
31867;DHT22;18431;45.580;-122.680;2022-07-23T05:20:13;26.30;50.60
31867;DHT22;18431;45.580;-122.680;2022-07-23T05:22:43;26.30;50.20
31867;DHT22;18431;45.580;-122.680;2022-07-23T05:25:13;26.30;50.00
31867;DHT22;18431;45.580;-122.680;2022-07-23T05:27:45;26.30;50.30
31867;DHT22;18431;45.580;-122.680;2022-07-23T05:30:14;26.40;50.50
31867;DHT22;18431;45.580;-122.680;2022-07-23T05:32:44;26.40;50.40
31867;DHT22;18431;45.580;-122.680;2022-07-23T05:35:14;26.40;50.30
31867;DHT22;18431;45.580;-122.680;2022-07-23T05:37:45;26.40;50.20
31867;DHT22;18431;45.580;-122.680;2022-07-23T05:40:15;26.40;50.00
31867;DHT22;18431;45.580;-122.680;2022-07-23T05:42:46;26.40;50.00
31867;DHT22;18431;45.580;-122.680;2022-07-23T05:45:16;26.40;50.20
31867;DHT22;18431;45.580;-122.680;2022-07-23T05:47:47;26.40;50.10
31867;DHT22;18431;45.580;-122.680;2022-07-23T05:50:17;26.40;50.00
31867;DHT22;18431;45.580;-122.680;2022-07-23T05:52:47;26.40;49.90
31867;DHT22;18431;45.580;-122.680;2022-07-23T05:55:17;26.40;49.70
31867;DHT22;18431;45.580;-122.680;2022-07-23T05:57:47;26.50;49.80
31867;DHT22;18431;45.580;-122.680;2022-07-23T06:00:17;26.50;49.80
31867;DHT22;18431;45.580;-122.680;2022-07-23T06:02:47;26.50;49.90
31867;DHT22;18431;45.580;-122.680;2022-07-23T06:05:17;26.50;49.70
31867;DHT22;18431;45.580;-122.680;2022-07-23T06:07:47;26.50;49.60
31867;DHT22;18431;45.580;-122.680;2022-07-23T06:10:18;26.50;49.80
31867;DHT22;18431;45.580;-122.680;2022-07-23T06:12:49;26.50;49.70
31867;DHT22;18431;45.580;-122.680;2022-07-23T06:15:19;26.50;49.70
31867;DHT22;18431;45.580;-122.680;2022-07-23T06:17:49;26.50;49.80
31867;DHT22;18431;45.580;-122.680;2022-07-23T06:20:19;26.50;49.50
31867;DHT22;18431;45.580;-122.680;2022-07-23T06:22:48;26.50;49.60
31867;DHT22;18431;45.580;-122.680;2022-07-23T06:25:18;26.50;49.80
31867;DHT22;18431;45.580;-122.680;2022-07-23T06:27:48;26.50;49.60
31867;DHT22;18431;45.580;-122.680;2022-07-23T06:30:18;26.50;49.60
31867;DHT22;18431;45.580;-122.680;2022-07-23T06:32:48;26.50;49.70
31867;DHT22;18431;45.580;-122.680;2022-07-23T06:35:18;26.40;49.70
31867;DHT22;18431;45.580;-122.680;2022-07-23T06:37:48;26.40;49.60
31867;DHT22;18431;45.580;-122.680;2022-07-23T06:40:18;26.40;49.70
31867;DHT22;18431;45.580;-122.680;2022-07-23T06:42:48;26.40;49.60
31867;DHT22;18431;45.580;-122.680;2022-07-23T06:45:18;26.40;49.70
31867;DHT22;18431;45.580;-122.680;2022-07-23T06:47:48;26.40;49.60
31867;DHT22;18431;45.580;-122.680;2022-07-23T06:50:18;26.40;49.60
31867;DHT22;18431;45.580;-122.680;2022-07-23T06:52:48;26.40;49.70
31867;DHT22;18431;45.580;-122.680;2022-07-23T06:55:18;26.40;49.70
31867;DHT22;18431;45.580;-122.680;2022-07-23T06:57:48;26.40;49.60
31867;DHT22;18431;45.580;-122.680;2022-07-23T07:00:17;26.40;49.50
31867;DHT22;18431;45.580;-122.680;2022-07-23T07:02:47;26.40;49.50
31867;DHT22;18431;45.580;-122.680;2022-07-23T07:05:17;26.40;49.60
31867;DHT22;18431;45.580;-122.680;2022-07-23T07:07:47;26.40;49.50
31867;DHT22;18431;45.580;-122.680;2022-07-23T07:10:17;26.30;49.40
31867;DHT22;18431;45.580;-122.680;2022-07-23T07:12:48;26.30;49.40
31867;DHT22;18431;45.580;-122.680;2022-07-23T07:15:17;26.30;49.50
31867;DHT22;18431;45.580;-122.680;2022-07-23T07:17:47;26.30;49.40
31867;DHT22;18431;45.580;-122.680;2022-07-23T07:20:17;26.30;49.40
31867;DHT22;18431;45.580;-122.680;2022-07-23T07:22:47;26.30;49.40
31867;DHT22;18431;45.580;-122.680;2022-07-23T07:25:17;26.30;49.40
31867;DHT22;18431;45.580;-122.680;2022-07-23T07:27:47;26.30;49.30
31867;DHT22;18431;45.580;-122.680;2022-07-23T07:30:16;26.30;49.30
31867;DHT22;18431;45.580;-122.680;2022-07-23T07:32:46;26.30;49.20
31867;DHT22;18431;45.580;-122.680;2022-07-23T07:35:16;26.30;49.30
31867;DHT22;18431;45.580;-122.680;2022-07-23T07:37:46;26.30;49.20
31867;DHT22;18431;45.580;-122.680;2022-07-23T07:40:16;26.30;49.30
31867;DHT22;18431;45.580;-122.680;2022-07-23T07:42:50;26.30;49.30
31867;DHT22;18431;45.580;-122.680;2022-07-23T07:45:21;26.30;49.30
31867;DHT22;18431;45.580;-122.680;2022-07-23T07:47:52;26.30;49.30
31867;DHT22;18431;45.580;-122.680;2022-07-23T07:50:22;26.30;49.20
31867;DHT22;18431;45.580;-122.680;2022-07-23T07:53:11;26.30;49.30
31867;DHT22;18431;45.580;-122.680;2022-07-23T07:55:41;26.30;49.30
31867;DHT22;18431;45.580;-122.680;2022-07-23T07:58:11;26.30;50.00
31867;DHT22;18431;45.580;-122.680;2022-07-23T08:00:41;26.30;49.20
31867;DHT22;18431;45.580;-122.680;2022-07-23T08:03:10;26.30;49.30
31867;DHT22;18431;45.580;-122.680;2022-07-23T08:05:40;26.30;49.30
31867;DHT22;18431;45.580;-122.680;2022-07-23T08:08:10;26.20;49.20
31867;DHT22;18431;45.580;-122.680;2022-07-23T08:10:42;26.30;49.30
31867;DHT22;18431;45.580;-122.680;2022-07-23T08:13:15;26.20;49.30
31867;DHT22;18431;45.580;-122.680;2022-07-23T08:15:46;26.20;49.30
31867;DHT22;18431;45.580;-122.680;2022-07-23T08:18:16;26.20;49.20
31867;DHT22;18431;45.580;-122.680;2022-07-23T08:20:46;26.20;49.20
31867;DHT22;18431;45.580;-122.680;2022-07-23T08:23:15;26.20;49.20
31867;DHT22;18431;45.580;-122.680;2022-07-23T08:25:47;26.20;49.20
31867;DHT22;18431;45.580;-122.680;2022-07-23T08:28:16;26.20;49.20
31867;DHT22;18431;45.580;-122.680;2022-07-23T08:30:46;26.20;49.30
31867;DHT22;18431;45.580;-122.680;2022-07-23T08:33:18;26.20;49.40
31867;DHT22;18431;45.580;-122.680;2022-07-23T08:35:49;26.20;49.50
31867;DHT22;18431;45.580;-122.680;2022-07-23T08:38:21;26.20;49.70
31867;DHT22;18431;45.580;-122.680;2022-07-23T08:40:52;26.20;49.80
31867;DHT22;18431;45.580;-122.680;2022-07-23T08:43:24;26.20;49.90
31867;DHT22;18431;45.580;-122.680;2022-07-23T08:45:55;26.20;50.00
31867;DHT22;18431;45.580;-122.680;2022-07-23T08:48:28;26.20;50.00
31867;DHT22;18431;45.580;-122.680;2022-07-23T08:51:00;26.20;50.20
31867;DHT22;18431;45.580;-122.680;2022-07-23T08:53:32;26.20;50.10
31867;DHT22;18431;45.580;-122.680;2022-07-23T08:56:03;26.20;50.20
31867;DHT22;18431;45.580;-122.680;2022-07-23T08:58:33;26.20;50.20
31867;DHT22;18431;45.580;-122.680;2022-07-23T09:01:03;26.20;50.30
31867;DHT22;18431;45.580;-122.680;2022-07-23T09:03:35;26.20;50.30
31867;DHT22;18431;45.580;-122.680;2022-07-23T09:06:05;26.20;50.30
31867;DHT22;18431;45.580;-122.680;2022-07-23T09:08:40;26.20;50.30
31867;DHT22;18431;45.580;-122.680;2022-07-23T09:11:11;26.20;50.30
31867;DHT22;18431;45.580;-122.680;2022-07-23T09:13:49;26.20;50.30
31867;DHT22;18431;45.580;-122.680;2022-07-23T09:16:26;26.20;50.20
31867;DHT22;18431;45.580;-122.680;2022-07-23T09:18:59;26.20;50.20
31867;DHT22;18431;45.580;-122.680;2022-07-23T09:21:30;26.10;50.10
31867;DHT22;18431;45.580;-122.680;2022-07-23T09:24:05;26.10;50.10
31867;DHT22;18431;45.580;-122.680;2022-07-23T09:26:40;26.10;50.20
31867;DHT22;18431;45.580;-122.680;2022-07-23T09:29:17;26.10;50.10
31867;DHT22;18431;45.580;-122.680;2022-07-23T09:32:06;26.10;50.20
31867;DHT22;18431;45.580;-122.680;2022-07-23T09:34:37;26.10;50.10
31867;DHT22;18431;45.580;-122.680;2022-07-23T09:37:12;26.10;50.20
31867;DHT22;18431;45.580;-122.680;2022-07-23T09:39:45;26.10;50.20
31867;DHT22;18431;45.580;-122.680;2022-07-23T09:42:33;26.10;50.20
31867;DHT22;18431;45.580;-122.680;2022-07-23T09:45:03;26.10;50.20
31867;DHT22;18431;45.580;-122.680;2022-07-23T09:47:33;26.10;50.20
31867;DHT22;18431;45.580;-122.680;2022-07-23T09:50:09;26.10;50.20
31867;DHT22;18431;45.580;-122.680;2022-07-23T09:52:45;26.10;50.10
31867;DHT22;18431;45.580;-122.680;2022-07-23T09:55:18;26.10;50.10
31867;DHT22;18431;45.580;-122.680;2022-07-23T09:57:48;26.10;50.20
31867;DHT22;18431;45.580;-122.680;2022-07-23T10:00:23;26.10;50.10
31867;DHT22;18431;45.580;-122.680;2022-07-23T10:02:54;26.10;50.10
31867;DHT22;18431;45.580;-122.680;2022-07-23T10:05:25;26.10;50.10
31867;DHT22;18431;45.580;-122.680;2022-07-23T10:07:55;26.10;50.10
31867;DHT22;18431;45.580;-122.680;2022-07-23T10:10:26;26.10;50.10
31867;DHT22;18431;45.580;-122.680;2022-07-23T10:12:57;26.10;50.00
31867;DHT22;18431;45.580;-122.680;2022-07-23T10:15:28;26.10;50.00
31867;DHT22;18431;45.580;-122.680;2022-07-23T10:17:59;26.00;50.00
31867;DHT22;18431;45.580;-122.680;2022-07-23T10:20:29;26.00;49.90
31867;DHT22;18431;45.580;-122.680;2022-07-23T10:23:36;26.10;49.90
31867;DHT22;18431;45.580;-122.680;2022-07-23T10:26:28;26.00;49.90
31867;DHT22;18431;45.580;-122.680;2022-07-23T10:31:56;26.00;50.00
31867;DHT22;18431;45.580;-122.680;2022-07-23T10:37:47;26.00;50.10
31867;DHT22;18431;45.580;-122.680;2022-07-23T10:40:15;25.90;50.00
31867;DHT22;18431;45.580;-122.680;2022-07-23T10:42:48;25.90;50.10
31867;DHT22;18431;45.580;-122.680;2022-07-23T10:48:20;25.90;50.10
31867;DHT22;18431;45.580;-122.680;2022-07-23T10:51:08;25.90;50.10
31867;DHT22;18431;45.580;-122.680;2022-07-23T10:53:58;25.90;50.10
31867;DHT22;18431;45.580;-122.680;2022-07-23T10:59:26;25.90;50.10
31867;DHT22;18431;45.580;-122.680;2022-07-23T11:04:52;25.90;50.10
31867;DHT22;18431;45.580;-122.680;2022-07-23T11:07:22;25.80;50.00
31867;DHT22;18431;45.580;-122.680;2022-07-23T11:09:52;25.90;50.10
31867;DHT22;18431;45.580;-122.680;2022-07-23T11:15:08;25.90;50.00
31867;DHT22;18431;45.580;-122.680;2022-07-23T11:20:24;25.90;50.00
31867;DHT22;18431;45.580;-122.680;2022-07-23T11:22:55;25.90;50.00
31867;DHT22;18431;45.580;-122.680;2022-07-23T11:28:13;25.90;50.00
31867;DHT22;18431;45.580;-122.680;2022-07-23T11:31:01;25.90;49.90
31867;DHT22;18431;45.580;-122.680;2022-07-23T11:33:34;25.90;49.90
31867;DHT22;18431;45.580;-122.680;2022-07-23T11:36:04;25.90;49.90
31867;DHT22;18431;45.580;-122.680;2022-07-23T11:38:34;25.90;49.90
31867;DHT22;18431;45.580;-122.680;2022-07-23T11:41:05;25.90;49.90
31867;DHT22;18431;45.580;-122.680;2022-07-23T11:43:37;25.90;49.90
31867;DHT22;18431;45.580;-122.680;2022-07-23T11:46:25;25.90;49.90
31867;DHT22;18431;45.580;-122.680;2022-07-23T11:49:02;25.90;49.80
31867;DHT22;18431;45.580;-122.680;2022-07-23T11:51:32;25.80;49.70
31867;DHT22;18431;45.580;-122.680;2022-07-23T11:54:06;25.90;49.80
31867;DHT22;18431;45.580;-122.680;2022-07-23T11:56:36;25.80;49.70
31867;DHT22;18431;45.580;-122.680;2022-07-23T11:59:24;25.80;49.80
31867;DHT22;18431;45.580;-122.680;2022-07-23T12:02:03;25.80;49.70
31867;DHT22;18431;45.580;-122.680;2022-07-23T12:04:45;25.80;49.70
31867;DHT22;18431;45.580;-122.680;2022-07-23T12:07:31;25.80;49.70
31867;DHT22;18431;45.580;-122.680;2022-07-23T12:10:14;25.80;49.70
31867;DHT22;18431;45.580;-122.680;2022-07-23T12:12:40;25.80;49.70
31867;DHT22;18431;45.580;-122.680;2022-07-23T12:15:11;25.80;49.70
31867;DHT22;18431;45.580;-122.680;2022-07-23T12:17:42;25.80;49.80
31867;DHT22;18431;45.580;-122.680;2022-07-23T12:20:17;25.80;49.80
31867;DHT22;18431;45.580;-122.680;2022-07-23T12:22:48;25.80;49.80
31867;DHT22;18431;45.580;-122.680;2022-07-23T12:25:20;25.80;49.80
31867;DHT22;18431;45.580;-122.680;2022-07-23T12:28:09;25.80;49.70
31867;DHT22;18431;45.580;-122.680;2022-07-23T12:30:41;25.80;49.70
31867;DHT22;18431;45.580;-122.680;2022-07-23T12:33:13;25.80;49.70
31867;DHT22;18431;45.580;-122.680;2022-07-23T12:35:45;25.80;49.70
31867;DHT22;18431;45.580;-122.680;2022-07-23T12:38:17;25.80;49.70
31867;DHT22;18431;45.580;-122.680;2022-07-23T12:40:59;25.70;49.70
31867;DHT22;18431;45.580;-122.680;2022-07-23T12:43:36;25.80;49.70
31867;DHT22;18431;45.580;-122.680;2022-07-23T12:46:12;25.70;49.70
31867;DHT22;18431;45.580;-122.680;2022-07-23T12:48:53;25.70;49.60
31867;DHT22;18431;45.580;-122.680;2022-07-23T12:51:25;25.70;49.70
31867;DHT22;18431;45.580;-122.680;2022-07-23T12:53:57;25.70;49.70
31867;DHT22;18431;45.580;-122.680;2022-07-23T12:56:32;25.70;49.70
31867;DHT22;18431;45.580;-122.680;2022-07-23T12:59:07;25.70;49.70
31867;DHT22;18431;45.580;-122.680;2022-07-23T13:01:39;25.70;49.70
31867;DHT22;18431;45.580;-122.680;2022-07-23T13:04:11;25.70;49.70
31867;DHT22;18431;45.580;-122.680;2022-07-23T13:06:51;25.70;49.90
31867;DHT22;18431;45.580;-122.680;2022-07-23T13:09:23;25.70;49.70
31867;DHT22;18431;45.580;-122.680;2022-07-23T13:11:49;25.70;49.80
31867;DHT22;18431;45.580;-122.680;2022-07-23T13:14:20;25.70;49.70
31867;DHT22;18431;45.580;-122.680;2022-07-23T13:16:51;25.70;49.60
31867;DHT22;18431;45.580;-122.680;2022-07-23T13:19:21;25.70;49.70
31867;DHT22;18431;45.580;-122.680;2022-07-23T13:21:51;25.70;49.60
31867;DHT22;18431;45.580;-122.680;2022-07-23T13:24:21;25.70;49.60
31867;DHT22;18431;45.580;-122.680;2022-07-23T13:26:51;25.70;49.60
31867;DHT22;18431;45.580;-122.680;2022-07-23T13:29:22;25.70;49.60
31867;DHT22;18431;45.580;-122.680;2022-07-23T13:31:54;25.70;49.60
31867;DHT22;18431;45.580;-122.680;2022-07-23T13:34:23;25.70;49.60
31867;DHT22;18431;45.580;-122.680;2022-07-23T13:36:54;25.70;49.60
31867;DHT22;18431;45.580;-122.680;2022-07-23T13:39:24;25.70;49.60
31867;DHT22;18431;45.580;-122.680;2022-07-23T13:41:54;25.70;49.60
31867;DHT22;18431;45.580;-122.680;2022-07-23T13:44:25;25.70;49.60
31867;DHT22;18431;45.580;-122.680;2022-07-23T13:46:55;25.70;49.50
31867;DHT22;18431;45.580;-122.680;2022-07-23T13:49:25;25.70;49.50
31867;DHT22;18431;45.580;-122.680;2022-07-23T13:51:55;25.70;49.50
31867;DHT22;18431;45.580;-122.680;2022-07-23T13:54:25;25.70;49.50
31867;DHT22;18431;45.580;-122.680;2022-07-23T13:56:55;25.70;49.60
31867;DHT22;18431;45.580;-122.680;2022-07-23T13:59:25;25.70;49.50
31867;DHT22;18431;45.580;-122.680;2022-07-23T14:01:57;25.60;49.40
31867;DHT22;18431;45.580;-122.680;2022-07-23T14:04:27;25.70;49.50
31867;DHT22;18431;45.580;-122.680;2022-07-23T14:06:57;25.60;49.40
31867;DHT22;18431;45.580;-122.680;2022-07-23T14:09:27;25.60;49.40
31867;DHT22;18431;45.580;-122.680;2022-07-23T14:11:58;25.60;49.50
31867;DHT22;18431;45.580;-122.680;2022-07-23T14:14:28;25.60;49.50
31867;DHT22;18431;45.580;-122.680;2022-07-23T14:16:58;25.60;49.50
31867;DHT22;18431;45.580;-122.680;2022-07-23T14:19:28;25.60;49.40
31867;DHT22;18431;45.580;-122.680;2022-07-23T14:21:58;25.60;49.50
31867;DHT22;18431;45.580;-122.680;2022-07-23T14:24:28;25.60;49.40
31867;DHT22;18431;45.580;-122.680;2022-07-23T14:27:16;25.60;49.50
31867;DHT22;18431;45.580;-122.680;2022-07-23T14:29:46;25.60;49.50
31867;DHT22;18431;45.580;-122.680;2022-07-23T14:32:18;25.60;49.50
31867;DHT22;18431;45.580;-122.680;2022-07-23T14:35:06;25.60;49.50
31867;DHT22;18431;45.580;-122.680;2022-07-23T14:37:36;25.60;49.50
31867;DHT22;18431;45.580;-122.680;2022-07-23T14:40:07;25.50;49.50
31867;DHT22;18431;45.580;-122.680;2022-07-23T14:42:37;25.50;49.50
31867;DHT22;18431;45.580;-122.680;2022-07-23T14:45:07;25.50;49.50
31867;DHT22;18431;45.580;-122.680;2022-07-23T14:47:37;25.50;49.60
31867;DHT22;18431;45.580;-122.680;2022-07-23T14:50:07;25.50;49.60
31867;DHT22;18431;45.580;-122.680;2022-07-23T14:52:37;25.50;49.60
31867;DHT22;18431;45.580;-122.680;2022-07-23T14:55:08;25.50;49.60
31867;DHT22;18431;45.580;-122.680;2022-07-23T14:57:38;25.50;49.60
31867;DHT22;18431;45.580;-122.680;2022-07-23T15:00:08;25.50;49.60
31867;DHT22;18431;45.580;-122.680;2022-07-23T15:02:38;25.50;49.60
31867;DHT22;18431;45.580;-122.680;2022-07-23T15:05:08;25.50;49.60
31867;DHT22;18431;45.580;-122.680;2022-07-23T15:07:38;25.50;49.60
31867;DHT22;18431;45.580;-122.680;2022-07-23T15:10:08;25.50;49.60
31867;DHT22;18431;45.580;-122.680;2022-07-23T15:12:38;25.40;49.50
31867;DHT22;18431;45.580;-122.680;2022-07-23T15:15:08;25.40;49.50
31867;DHT22;18431;45.580;-122.680;2022-07-23T15:17:38;25.40;49.50
31867;DHT22;18431;45.580;-122.680;2022-07-23T15:20:09;25.40;49.50
31867;DHT22;18431;45.580;-122.680;2022-07-23T15:22:40;25.40;49.50
31867;DHT22;18431;45.580;-122.680;2022-07-23T15:25:29;25.40;49.50
31867;DHT22;18431;45.580;-122.680;2022-07-23T15:27:59;25.40;49.60
31867;DHT22;18431;45.580;-122.680;2022-07-23T15:30:28;25.40;49.60
31867;DHT22;18431;45.580;-122.680;2022-07-23T15:32:58;25.40;49.60
31867;DHT22;18431;45.580;-122.680;2022-07-23T15:35:29;25.40;49.70
31867;DHT22;18431;45.580;-122.680;2022-07-23T15:37:59;25.40;49.70